sensor_id;sensor_type;location;lat;lon;timestamp;P1;durP1;ratioP1;P2;durP2;ratioP2
751;SDS011;360;48.764;9.164;2023-07-24T14:52:16;3.67;;;1.90;;
751;SDS011;360;48.764;9.164;2023-07-24T14:54:44;3.60;;;1.93;;
751;SDS011;360;48.764;9.164;2023-07-24T14:57:11;4.07;;;2.20;;
751;SDS011;360;48.764;9.164;2023-07-24T14:59:38;2.63;;;1.40;;
751;SDS011;360;48.764;9.164;2023-07-24T15:02:06;4.50;;;2.37;;
751;SDS011;360;48.764;9.164;2023-07-24T15:04:33;3.00;;;1.60;;
751;SDS011;360;48.764;9.164;2023-07-24T15:07:01;3.57;;;2.03;;
751;SDS011;360;48.764;9.164;2023-07-24T15:09:30;4.57;;;2.03;;
751;SDS011;360;48.764;9.164;2023-07-24T15:11:57;4.33;;;2.27;;
751;SDS011;360;48.764;9.164;2023-07-24T15:14:25;3.83;;;2.07;;
751;SDS011;360;48.764;9.164;2023-07-24T15:16:52;3.90;;;2.00;;
751;SDS011;360;48.764;9.164;2023-07-24T15:19:20;3.27;;;1.93;;
751;SDS011;360;48.764;9.164;2023-07-24T15:21:47;2.70;;;1.90;;
751;SDS011;360;48.764;9.164;2023-07-24T15:24:15;2.60;;;1.93;;
751;SDS011;360;48.764;9.164;2023-07-24T15:26:45;3.47;;;2.40;;
751;SDS011;360;48.764;9.164;2023-07-24T15:29:13;2.33;;;1.70;;
751;SDS011;360;48.764;9.164;2023-07-24T15:31:41;3.27;;;1.40;;
751;SDS011;360;48.764;9.164;2023-07-24T15:34:09;2.73;;;1.43;;
751;SDS011;360;48.764;9.164;2023-07-24T15:36:36;3.20;;;1.90;;
751;SDS011;360;48.764;9.164;2023-07-24T15:39:03;3.37;;;1.93;;
751;SDS011;360;48.764;9.164;2023-07-24T15:41:31;2.40;;;1.70;;
751;SDS011;360;48.764;9.164;2023-07-24T15:44:03;2.67;;;1.90;;
751;SDS011;360;48.764;9.164;2023-07-24T15:46:31;3.63;;;1.90;;
751;SDS011;360;48.764;9.164;2023-07-24T15:49:01;3.10;;;1.30;;
751;SDS011;360;48.764;9.164;2023-07-24T15:51:30;3.57;;;1.80;;
751;SDS011;360;48.764;9.164;2023-07-24T15:53:57;3.50;;;1.77;;
751;SDS011;360;48.764;9.164;2023-07-24T15:56:25;3.20;;;1.70;;
751;SDS011;360;48.764;9.164;2023-07-24T15:58:52;2.90;;;1.80;;
751;SDS011;360;48.764;9.164;2023-07-24T16:01:24;2.40;;;1.30;;
751;SDS011;360;48.764;9.164;2023-07-24T16:03:53;3.10;;;2.00;;
751;SDS011;360;48.764;9.164;2023-07-24T16:06:20;2.50;;;2.00;;
751;SDS011;360;48.764;9.164;2023-07-24T16:08:48;3.00;;;1.67;;
751;SDS011;360;48.764;9.164;2023-07-24T16:11:16;3.23;;;1.67;;
751;SDS011;360;48.764;9.164;2023-07-24T16:13:43;2.97;;;1.67;;
751;SDS011;360;48.764;9.164;2023-07-24T16:16:11;2.80;;;1.20;;
751;SDS011;360;48.764;9.164;2023-07-24T16:18:40;2.50;;;1.23;;
751;SDS011;360;48.764;9.164;2023-07-24T16:21:08;2.67;;;1.37;;
751;SDS011;360;48.764;9.164;2023-07-24T16:23:35;4.90;;;1.63;;
751;SDS011;360;48.764;9.164;2023-07-24T16:26:02;4.63;;;2.57;;
751;SDS011;360;48.764;9.164;2023-07-24T16:28:30;4.03;;;1.93;;
751;SDS011;360;48.764;9.164;2023-07-24T16:30:58;2.43;;;1.63;;
751;SDS011;360;48.764;9.164;2023-07-24T16:33:26;2.73;;;1.50;;
751;SDS011;360;48.764;9.164;2023-07-24T16:35:56;3.03;;;1.50;;
751;SDS011;360;48.764;9.164;2023-07-24T16:38:24;4.63;;;1.63;;
751;SDS011;360;48.764;9.164;2023-07-24T16:40:53;2.43;;;1.40;;
751;SDS011;360;48.764;9.164;2023-07-24T16:43:20;3.33;;;1.50;;
751;SDS011;360;48.764;9.164;2023-07-24T16:45:48;4.30;;;2.20;;
751;SDS011;360;48.764;9.164;2023-07-24T16:48:16;2.27;;;1.57;;
751;SDS011;360;48.764;9.164;2023-07-24T16:50:45;3.97;;;1.63;;
751;SDS011;360;48.764;9.164;2023-07-24T16:53:14;2.67;;;1.60;;
751;SDS011;360;48.764;9.164;2023-07-24T16:55:41;2.87;;;1.57;;
751;SDS011;360;48.764;9.164;2023-07-24T16:58:09;3.27;;;1.73;;
751;SDS011;360;48.764;9.164;2023-07-24T17:00:36;2.93;;;1.57;;
751;SDS011;360;48.764;9.164;2023-07-24T17:03:05;3.30;;;1.77;;
751;SDS011;360;48.764;9.164;2023-07-24T17:05:33;3.20;;;1.70;;
751;SDS011;360;48.764;9.164;2023-07-24T17:08:01;3.03;;;1.73;;
751;SDS011;360;48.764;9.164;2023-07-24T17:10:39;2.67;;;1.40;;
751;SDS011;360;48.764;9.164;2023-07-24T17:13:07;3.57;;;1.37;;
751;SDS011;360;48.764;9.164;2023-07-24T17:15:34;2.70;;;1.50;;
751;SDS011;360;48.764;9.164;2023-07-24T17:18:03;4.43;;;1.60;;
751;SDS011;360;48.764;9.164;2023-07-24T17:20:31;3.03;;;1.40;;
751;SDS011;360;48.764;9.164;2023-07-24T17:22:59;1.90;;;1.20;;
751;SDS011;360;48.764;9.164;2023-07-24T17:25:27;2.27;;;1.40;;
751;SDS011;360;48.764;9.164;2023-07-24T17:27:56;2.33;;;1.37;;
751;SDS011;360;48.764;9.164;2023-07-24T17:30:23;2.20;;;1.10;;
751;SDS011;360;48.764;9.164;2023-07-24T17:32:51;2.70;;;1.30;;
751;SDS011;360;48.764;9.164;2023-07-24T17:37:46;2.33;;;1.03;;
751;SDS011;360;48.764;9.164;2023-07-24T17:40:16;2.83;;;1.50;;
751;SDS011;360;48.764;9.164;2023-07-24T17:42:43;2.73;;;1.00;;
751;SDS011;360;48.764;9.164;2023-07-24T17:45:12;2.70;;;1.00;;
751;SDS011;360;48.764;9.164;2023-07-24T17:47:40;2.13;;;0.90;;
751;SDS011;360;48.764;9.164;2023-07-24T17:50:07;2.33;;;1.20;;
751;SDS011;360;48.764;9.164;2023-07-24T17:52:35;2.30;;;1.60;;
751;SDS011;360;48.764;9.164;2023-07-24T17:55:03;2.17;;;1.03;;
751;SDS011;360;48.764;9.164;2023-07-24T17:57:31;1.50;;;0.90;;
751;SDS011;360;48.764;9.164;2023-07-24T17:59:58;2.90;;;1.20;;
751;SDS011;360;48.764;9.164;2023-07-24T18:02:31;2.13;;;1.30;;
751;SDS011;360;48.764;9.164;2023-07-24T18:04:59;3.27;;;1.30;;
751;SDS011;360;48.764;9.164;2023-07-24T18:07:26;2.00;;;1.10;;
751;SDS011;360;48.764;9.164;2023-07-24T18:10:11;1.83;;;0.93;;
751;SDS011;360;48.764;9.164;2023-07-24T18:12:38;2.13;;;1.00;;
751;SDS011;360;48.764;9.164;2023-07-24T18:15:06;1.70;;;0.90;;
751;SDS011;360;48.764;9.164;2023-07-24T18:17:35;1.87;;;1.03;;
751;SDS011;360;48.764;9.164;2023-07-24T18:20:05;2.93;;;1.10;;
751;SDS011;360;48.764;9.164;2023-07-24T18:22:33;2.03;;;1.27;;
751;SDS011;360;48.764;9.164;2023-07-24T18:25:01;1.93;;;1.17;;
751;SDS011;360;48.764;9.164;2023-07-24T18:27:28;3.13;;;1.40;;
751;SDS011;360;48.764;9.164;2023-07-24T18:29:56;4.03;;;1.47;;
751;SDS011;360;48.764;9.164;2023-07-24T18:32:23;4.77;;;1.67;;
751;SDS011;360;48.764;9.164;2023-07-24T18:34:52;3.47;;;1.23;;
751;SDS011;360;48.764;9.164;2023-07-24T18:37:20;2.20;;;1.20;;
751;SDS011;360;48.764;9.164;2023-07-24T18:39:47;1.90;;;0.93;;
751;SDS011;360;48.764;9.164;2023-07-24T18:42:15;2.00;;;1.10;;
751;SDS011;360;48.764;9.164;2023-07-24T18:44:42;1.47;;;0.80;;
751;SDS011;360;48.764;9.164;2023-07-24T18:47:10;5.60;;;1.50;;
751;SDS011;360;48.764;9.164;2023-07-24T18:49:38;4.83;;;1.60;;
751;SDS011;360;48.764;9.164;2023-07-24T18:52:07;1.97;;;1.00;;
751;SDS011;360;48.764;9.164;2023-07-24T18:54:34;1.90;;;1.00;;
751;SDS011;360;48.764;9.164;2023-07-24T18:57:02;1.70;;;0.83;;
751;SDS011;360;48.764;9.164;2023-07-24T18:59:29;2.13;;;1.00;;
751;SDS011;360;48.764;9.164;2023-07-24T19:01:57;1.70;;;0.80;;
751;SDS011;360;48.764;9.164;2023-07-24T19:04:25;2.73;;;1.50;;
751;SDS011;360;48.764;9.164;2023-07-24T19:06:52;1.87;;;0.80;;
751;SDS011;360;48.764;9.164;2023-07-24T19:09:24;3.40;;;1.57;;
751;SDS011;360;48.764;9.164;2023-07-24T19:11:51;1.63;;;0.80;;
751;SDS011;360;48.764;9.164;2023-07-24T19:14:19;2.20;;;1.10;;
751;SDS011;360;48.764;9.164;2023-07-24T19:16:47;2.00;;;0.93;;
751;SDS011;360;48.764;9.164;2023-07-24T19:19:14;2.70;;;1.20;;
751;SDS011;360;48.764;9.164;2023-07-24T19:21:41;2.73;;;1.23;;
751;SDS011;360;48.764;9.164;2023-07-24T19:24:11;2.03;;;0.70;;
751;SDS011;360;48.764;9.164;2023-07-24T19:26:40;1.80;;;0.80;;
751;SDS011;360;48.764;9.164;2023-07-24T19:29:08;1.70;;;0.90;;
751;SDS011;360;48.764;9.164;2023-07-24T19:31:36;3.20;;;1.30;;
751;SDS011;360;48.764;9.164;2023-07-24T19:34:03;2.03;;;1.20;;
751;SDS011;360;48.764;9.164;2023-07-24T19:36:30;2.17;;;1.40;;
751;SDS011;360;48.764;9.164;2023-07-24T19:38:59;4.40;;;1.57;;
751;SDS011;360;48.764;9.164;2023-07-24T19:41:31;1.63;;;0.93;;
751;SDS011;360;48.764;9.164;2023-07-24T19:44:00;1.40;;;0.73;;
751;SDS011;360;48.764;9.164;2023-07-24T19:46:27;3.00;;;1.13;;
751;SDS011;360;48.764;9.164;2023-07-24T19:48:55;2.83;;;1.23;;
751;SDS011;360;48.764;9.164;2023-07-24T19:51:25;2.57;;;1.20;;
751;SDS011;360;48.764;9.164;2023-07-24T19:53:53;2.60;;;0.90;;
751;SDS011;360;48.764;9.164;2023-07-24T19:56:20;2.30;;;1.40;;
751;SDS011;360;48.764;9.164;2023-07-24T19:58:48;2.17;;;1.43;;
751;SDS011;360;48.764;9.164;2023-07-24T20:01:19;2.30;;;1.23;;
751;SDS011;360;48.764;9.164;2023-07-24T20:03:47;2.73;;;0.83;;
751;SDS011;360;48.764;9.164;2023-07-24T20:06:14;2.23;;;1.00;;
751;SDS011;360;48.764;9.164;2023-07-24T20:08:42;3.57;;;1.10;;
751;SDS011;360;48.764;9.164;2023-07-24T20:11:09;1.83;;;0.87;;
751;SDS011;360;48.764;9.164;2023-07-24T20:13:36;1.80;;;1.00;;
751;SDS011;360;48.764;9.164;2023-07-24T20:16:04;2.20;;;1.13;;
751;SDS011;360;48.764;9.164;2023-07-24T20:18:35;2.20;;;1.20;;
751;SDS011;360;48.764;9.164;2023-07-24T20:21:03;2.30;;;0.80;;
751;SDS011;360;48.764;9.164;2023-07-24T20:23:30;3.10;;;1.13;;
751;SDS011;360;48.764;9.164;2023-07-24T20:25:57;1.70;;;0.80;;
751;SDS011;360;48.764;9.164;2023-07-24T20:28:25;2.10;;;1.27;;
751;SDS011;360;48.764;9.164;2023-07-24T20:30:52;1.80;;;1.00;;
751;SDS011;360;48.764;9.164;2023-07-24T20:33:20;2.00;;;0.83;;
751;SDS011;360;48.764;9.164;2023-07-24T20:35:50;2.90;;;0.93;;
751;SDS011;360;48.764;9.164;2023-07-24T20:38:20;2.77;;;0.80;;
751;SDS011;360;48.764;9.164;2023-07-24T20:40:49;2.53;;;1.30;;
751;SDS011;360;48.764;9.164;2023-07-24T20:43:16;2.37;;;1.00;;
751;SDS011;360;48.764;9.164;2023-07-24T20:45:45;4.83;;;1.20;;
751;SDS011;360;48.764;9.164;2023-07-24T20:48:17;1.83;;;0.90;;
